Time;durP1;ratioP1;P1;durP2;ratioP2;P2;SDS_P1;SDS_P2;PMS_P1;PMS_P2;Temp;Humidity;BMP_temperature;BMP_pressure;BME280_temperature;BME280_humidity;BME280_pressure;Samples;Min_cycle;Max_cycle;Signal;HPM_P1;HPM_P2
2023/01/21 00:01:32;;;;;;;20.98;7.68;;;;;;;;;;6144633;23;20395;-42
2023/01/21 00:04:00;;;;;;;19.50;7.72;;;;;;;;;;6150083;23;20021;-42
2023/01/21 00:06:32;;;;;;;26.38;7.68;;;;;;;;;;6155819;23;20107;-43
2023/01/21 00:09:01;;;;;;;24.77;8.55;;;;;;;;;;6128480;23;20073;-43
2023/01/21 00:11:30;;;;;;;20.40;7.60;;;;;;;;;;6153606;23;20456;-41
2023/01/21 00:13:58;;;;;;;18.95;7.72;;;;;;;;;;6146643;23;20072;-41
2023/01/21 00:16:26;;;;;;;24.95;9.07;;;;;;;;;;6154771;23;20017;-42
2023/01/21 00:18:55;;;;;;;27.30;8.68;;;;;;;;;;6143270;23;20024;-42
2023/01/21 00:21:23;;;;;;;21.70;7.25;;;;;;;;;;6157475;23;20025;-42
2023/01/21 00:23:51;;;;;;;21.20;7.23;;;;;;;;;;6151495;23;20025;-47
2023/01/21 00:26:18;;;;;;;24.48;8.07;;;;;;;;;;6132671;23;20024;-42
2023/01/21 00:28:47;;;;;;;18.33;7.55;;;;;;;;;;6145405;23;20017;-41
2023/01/21 00:31:15;;;;;;;18.77;7.38;;;;;;;;;;6161693;23;20060;-42
2023/01/21 00:33:43;;;;;;;20.10;7.28;;;;;;;;;;6148060;23;20040;-43
2023/01/21 00:36:11;;;;;;;22.63;7.20;;;;;;;;;;6155321;23;20407;-47
2023/01/21 00:38:39;;;;;;;22.17;7.88;;;;;;;;;;6148249;23;20387;-43
2023/01/21 00:41:08;;;;;;;24.55;7.28;;;;;;;;;;6159556;23;20333;-43
2023/01/21 00:43:39;;;;;;;21.80;7.47;;;;;;;;;;6150097;23;20032;-44
2023/01/21 00:46:09;;;;;;;22.27;7.93;;;;;;;;;;6157112;23;20025;-42
2023/01/21 00:48:37;;;;;;;21.73;7.63;;;;;;;;;;6150607;23;20013;-43
2023/01/21 00:51:05;;;;;;;24.13;8.80;;;;;;;;;;6154375;23;20021;-42
2023/01/21 00:53:34;;;;;;;19.48;7.88;;;;;;;;;;6144273;23;20025;-42
2023/01/21 00:56:06;;;;;;;20.20;7.60;;;;;;;;;;6154177;23;20100;-42
2023/01/21 00:58:34;;;;;;;24.48;8.70;;;;;;;;;;6158542;23;20028;-41
2023/01/21 01:01:02;;;;;;;20.93;7.03;;;;;;;;;;6149609;23;20029;-43
2023/01/21 01:03:31;;;;;;;20.90;8.05;;;;;;;;;;6156404;23;20024;-42
2023/01/21 01:06:03;;;;;;;23.88;8.10;;;;;;;;;;6150511;23;20024;-42
2023/01/21 01:08:30;;;;;;;19.63;7.50;;;;;;;;;;6158013;23;20060;-43
2023/01/21 01:10:58;;;;;;;20.77;7.50;;;;;;;;;;6151146;23;20242;-42
2023/01/21 01:13:26;;;;;;;20.63;6.50;;;;;;;;;;6155714;23;20021;-43
2023/01/21 01:15:54;;;;;;;20.20;6.70;;;;;;;;;;6149330;23;20017;-42
2023/01/21 01:18:22;;;;;;;20.70;8.02;;;;;;;;;;6159679;23;20024;-41
2023/01/21 01:20:51;;;;;;;18.95;6.38;;;;;;;;;;6141287;23;20067;-45
2023/01/21 01:23:19;;;;;;;17.80;7.15;;;;;;;;;;6161522;23;20032;-42
2023/01/21 01:25:54;;;;;;;18.53;6.27;;;;;;;;;;6153293;23;20017;-42
2023/01/21 01:28:26;;;;;;;14.00;6.28;;;;;;;;;;6151095;23;20016;-44
2023/01/21 01:30:54;;;;;;;21.08;6.93;;;;;;;;;;6129263;23;20124;-43
2023/01/21 01:33:22;;;;;;;31.77;6.30;;;;;;;;;;6110484;23;20024;-43
2023/01/21 01:35:52;;;;;;;24.95;5.80;;;;;;;;;;6154715;23;20052;-42
2023/01/21 01:38:21;;;;;;;20.10;5.70;;;;;;;;;;6153120;23;20475;-42
2023/01/21 01:40:49;;;;;;;17.02;6.05;;;;;;;;;;6154077;23;20414;-42
2023/01/21 01:43:18;;;;;;;20.67;5.85;;;;;;;;;;6137585;23;20021;-43
2023/01/21 01:45:47;;;;;;;15.82;6.00;;;;;;;;;;6154496;23;20017;-41
2023/01/21 01:48:16;;;;;;;20.08;7.10;;;;;;;;;;6138884;23;20017;-42
2023/01/21 01:50:45;;;;;;;19.33;6.90;;;;;;;;;;6133257;23;20020;-43
2023/01/21 01:53:15;;;;;;;16.58;6.90;;;;;;;;;;6153710;23;20013;-42
2023/01/21 01:55:43;;;;;;;19.85;6.80;;;;;;;;;;6158419;23;20196;-42
2023/01/21 01:58:13;;;;;;;19.27;6.55;;;;;;;;;;6148842;23;20052;-45
2023/01/21 02:00:41;;;;;;;18.35;5.97;;;;;;;;;;6159658;23;20471;-42
2023/01/21 02:05:55;;;;;;;22.38;6.63;;;;;;;;;;6120303;23;20017;-44
2023/01/21 02:08:25;;;;;;;17.40;6.30;;;;;;;;;;6160639;23;20067;-43
2023/01/21 02:10:55;;;;;;;19.77;6.43;;;;;;;;;;6150823;23;20709;-43
2023/01/21 02:13:23;;;;;;;21.02;6.07;;;;;;;;;;6158759;23;20084;-42
2023/01/21 02:15:58;;;;;;;18.87;6.10;;;;;;;;;;6144175;23;20025;-47
2023/01/21 02:18:33;;;;;;;16.95;5.57;;;;;;;;;;6160589;23;20452;-42
2023/01/21 02:21:19;;;;;;;17.77;6.40;;;;;;;;;;6157159;23;20017;-43
2023/01/21 02:24:02;;;;;;;17.15;5.85;;;;;;;;;;6149582;23;20438;-42
2023/01/21 02:26:40;;;;;;;17.58;5.82;;;;;;;;;;6156527;23;20043;-42
2023/01/21 02:29:35;;;;;;;16.20;5.43;;;;;;;;;;6158017;23;20020;-42
2023/01/21 02:32:23;;;;;;;17.05;6.40;;;;;;;;;;6066235;23;20025;-43
2023/01/21 02:34:54;;;;;;;20.67;6.78;;;;;;;;;;6077738;23;20074;-43
2023/01/21 02:37:26;;;;;;;17.58;6.45;;;;;;;;;;6155727;23;20906;-42
2023/01/21 02:40:09;;;;;;;20.27;6.80;;;;;;;;;;6143140;23;20075;-42
2023/01/21 02:42:41;;;;;;;18.77;6.10;;;;;;;;;;6153472;23;20025;-42
2023/01/21 02:45:14;;;;;;;17.02;5.93;;;;;;;;;;6148241;23;20530;-42
2023/01/21 02:47:47;;;;;;;18.23;6.28;;;;;;;;;;6163559;23;20024;-42
2023/01/21 02:50:18;;;;;;;18.42;5.70;;;;;;;;;;6143002;23;20013;-44
2023/01/21 02:52:54;;;;;;;15.77;5.60;;;;;;;;;;6149864;23;20059;-42
2023/01/21 02:55:24;;;;;;;17.93;6.37;;;;;;;;;;6154459;23;20020;-43
2023/01/21 02:57:54;;;;;;;17.08;6.45;;;;;;;;;;6130827;23;20107;-43
2023/01/21 03:00:23;;;;;;;17.95;6.00;;;;;;;;;;6119933;23;20478;-42
2023/01/21 03:03:23;;;;;;;17.27;6.22;;;;;;;;;;6154894;23;20111;-42
2023/01/21 03:06:00;;;;;;;14.93;6.35;;;;;;;;;;6158347;23;20096;-45
2023/01/21 03:08:30;;;;;;;15.93;5.83;;;;;;;;;;6147829;23;20021;-44
2023/01/21 03:11:03;;;;;;;16.42;6.30;;;;;;;;;;6152377;23;20041;-41
2023/01/21 03:19:12;;;;;;;16.48;6.38;;;;;;;;;;6150603;23;20112;-43
2023/01/21 03:21:41;;;;;;;15.07;6.00;;;;;;;;;;6141053;23;20021;-42
2023/01/21 03:24:15;;;;;;;23.00;6.47;;;;;;;;;;6165316;23;20024;-41
2023/01/21 03:26:47;;;;;;;18.17;6.45;;;;;;;;;;6152105;23;20017;-43
2023/01/21 03:29:17;;;;;;;16.13;6.55;;;;;;;;;;6150521;23;20021;-42
2023/01/21 03:31:46;;;;;;;18.67;6.28;;;;;;;;;;6155919;23;20024;-42
2023/01/21 03:34:16;;;;;;;17.37;6.17;;;;;;;;;;6146674;23;20027;-41
2023/01/21 03:36:48;;;;;;;21.90;6.65;;;;;;;;;;6153502;23;20049;-43
2023/01/21 03:39:20;;;;;;;15.43;5.80;;;;;;;;;;6142934;23;20351;-42
2023/01/21 03:41:48;;;;;;;18.10;6.53;;;;;;;;;;6158097;23;20550;-43
2023/01/21 03:44:15;;;;;;;15.88;5.93;;;;;;;;;;6149337;23;20041;-42
2023/01/21 03:46:45;;;;;;;15.90;6.30;;;;;;;;;;6153035;23;20048;-43
2023/01/21 03:49:17;;;;;;;18.02;5.95;;;;;;;;;;6155922;23;20036;-42
2023/01/21 03:51:49;;;;;;;18.73;6.13;;;;;;;;;;6155990;23;20087;-44
2023/01/21 03:54:17;;;;;;;16.63;6.03;;;;;;;;;;6142447;23;20024;-42
2023/01/21 03:56:44;;;;;;;20.33;6.10;;;;;;;;;;6152086;23;20095;-42
2023/01/21 03:59:12;;;;;;;17.97;6.57;;;;;;;;;;6159804;23;20013;-42
2023/01/21 04:01:40;;;;;;;16.33;5.78;;;;;;;;;;6148452;23;20017;-42
2023/01/21 04:04:08;;;;;;;20.08;5.78;;;;;;;;;;6160051;23;20071;-43
2023/01/21 04:06:36;;;;;;;14.80;5.45;;;;;;;;;;6149281;23;20032;-42
2023/01/21 04:09:08;;;;;;;16.67;5.65;;;;;;;;;;6162835;23;20017;-43
2023/01/21 04:11:35;;;;;;;18.57;5.70;;;;;;;;;;6158446;23;20024;-42
2023/01/21 04:14:03;;;;;;;15.40;5.70;;;;;;;;;;6143306;23;20016;-43
2023/01/21 04:16:31;;;;;;;15.15;6.50;;;;;;;;;;6161085;23;20013;-42
2023/01/21 04:18:58;;;;;;;17.48;5.38;;;;;;;;;;6116208;23;20324;-43
2023/01/21 04:21:26;;;;;;;15.63;5.43;;;;;;;;;;6160731;23;20079;-42
2023/01/21 04:23:54;;;;;;;23.93;6.73;;;;;;;;;;6149061;23;20444;-42
2023/01/21 04:26:23;;;;;;;16.70;6.15;;;;;;;;;;6159773;23;20017;-44
2023/01/21 04:28:51;;;;;;;16.20;5.45;;;;;;;;;;6144773;23;20028;-43
2023/01/21 04:31:18;;;;;;;17.52;5.70;;;;;;;;;;6137017;23;20017;-42
2023/01/21 04:33:46;;;;;;;19.42;5.95;;;;;;;;;;6147922;23;20019;-43
2023/01/21 04:36:14;;;;;;;14.67;5.90;;;;;;;;;;6124021;23;20026;-41
2023/01/21 04:38:41;;;;;;;23.30;6.25;;;;;;;;;;6121265;23;20101;-44
2023/01/21 04:41:09;;;;;;;20.65;6.45;;;;;;;;;;6127138;23;20014;-44
2023/01/21 04:43:38;;;;;;;17.05;6.22;;;;;;;;;;6122795;23;20049;-42
2023/01/21 04:46:06;;;;;;;17.70;6.38;;;;;;;;;;6125242;23;20121;-42
2023/01/21 04:48:33;;;;;;;18.67;6.53;;;;;;;;;;6126218;23;20032;-41
2023/01/21 04:51:01;;;;;;;18.90;6.32;;;;;;;;;;6122455;23;20014;-42
2023/01/21 04:53:29;;;;;;;15.98;5.15;;;;;;;;;;6130307;23;20021;-43
2023/01/21 04:55:56;;;;;;;17.38;5.80;;;;;;;;;;6121634;23;20588;-42
2023/01/21 04:58:25;;;;;;;21.60;5.82;;;;;;;;;;6129175;23;20464;-42
2023/01/21 05:00:55;;;;;;;18.80;6.57;;;;;;;;;;6093999;23;20084;-43
2023/01/21 05:03:23;;;;;;;20.45;6.30;;;;;;;;;;6121733;23;20041;-42
2023/01/21 05:05:51;;;;;;;19.75;6.25;;;;;;;;;;6121573;23;20068;-42
2023/01/21 05:08:18;;;;;;;16.67;6.10;;;;;;;;;;6124013;23;20018;-43
2023/01/21 05:10:46;;;;;;;17.45;5.45;;;;;;;;;;6125116;23;20045;-42
2023/01/21 05:13:14;;;;;;;14.97;6.30;;;;;;;;;;6124372;23;20101;-45
2023/01/21 05:15:41;;;;;;;18.08;6.00;;;;;;;;;;6124393;23;20014;-42
2023/01/21 05:18:12;;;;;;;16.17;6.38;;;;;;;;;;6130929;23;20025;-45
2023/01/21 05:20:40;;;;;;;15.45;5.70;;;;;;;;;;6114209;23;20561;-42
2023/01/21 05:23:07;;;;;;;18.73;6.07;;;;;;;;;;6126202;23;20025;-42
2023/01/21 05:25:35;;;;;;;15.67;5.87;;;;;;;;;;6121126;23;20028;-43
2023/01/21 05:28:03;;;;;;;17.73;5.50;;;;;;;;;;6127859;23;20101;-42
2023/01/21 05:30:34;;;;;;;17.08;6.18;;;;;;;;;;6107519;23;20014;-42
2023/01/21 05:33:02;;;;;;;17.42;6.00;;;;;;;;;;6127848;23;20782;-43
2023/01/21 05:35:34;;;;;;;19.30;5.63;;;;;;;;;;6134391;23;20513;-42
2023/01/21 05:38:01;;;;;;;18.60;6.63;;;;;;;;;;6159933;23;20040;-42
2023/01/21 05:40:29;;;;;;;18.90;6.82;;;;;;;;;;6153137;23;20125;-41
2023/01/21 05:42:57;;;;;;;23.00;7.10;;;;;;;;;;6122841;23;20332;-43
2023/01/21 05:45:24;;;;;;;27.08;7.30;;;;;;;;;;6159206;23;20530;-42
2023/01/21 05:47:52;;;;;;;20.55;7.30;;;;;;;;;;6145635;23;20044;-42
2023/01/21 05:50:19;;;;;;;19.50;6.93;;;;;;;;;;6132808;23;20573;-42
2023/01/21 05:52:48;;;;;;;23.25;7.18;;;;;;;;;;6153254;23;20029;-43
2023/01/21 05:55:16;;;;;;;28.30;8.63;;;;;;;;;;6160064;23;20017;-43
2023/01/21 05:57:44;;;;;;;22.75;7.85;;;;;;;;;;6144485;23;20017;-43
2023/01/21 06:00:12;;;;;;;22.98;7.93;;;;;;;;;;6160088;23;20037;-43
2023/01/21 06:02:40;;;;;;;27.17;7.90;;;;;;;;;;6147907;23;20478;-42
2023/01/21 06:05:08;;;;;;;21.17;7.85;;;;;;;;;;6156460;23;20031;-42
2023/01/21 06:07:35;;;;;;;19.83;8.18;;;;;;;;;;6149742;23;20055;-42
2023/01/21 06:10:05;;;;;;;25.95;8.10;;;;;;;;;;6158333;23;20100;-42
2023/01/21 06:12:32;;;;;;;22.95;8.13;;;;;;;;;;6148581;23;20096;-42
2023/01/21 06:15:01;;;;;;;23.70;8.43;;;;;;;;;;6158413;23;20116;-42
2023/01/21 06:17:29;;;;;;;23.00;8.35;;;;;;;;;;6150137;23;20040;-42
2023/01/21 06:19:57;;;;;;;27.00;9.57;;;;;;;;;;6149229;23;20017;-42
2023/01/21 06:22:25;;;;;;;30.05;8.40;;;;;;;;;;6155077;23;20021;-42
2023/01/21 06:24:52;;;;;;;24.08;8.82;;;;;;;;;;6152848;23;20572;-43
2023/01/21 06:27:21;;;;;;;25.80;9.60;;;;;;;;;;6152281;23;20709;-43
2023/01/21 06:29:49;;;;;;;22.40;8.75;;;;;;;;;;6154343;23;20057;-42
2023/01/21 06:32:16;;;;;;;31.05;9.43;;;;;;;;;;6147167;23;20831;-45
2023/01/21 06:34:44;;;;;;;26.08;9.07;;;;;;;;;;6155284;23;20025;-41
2023/01/21 06:37:13;;;;;;;27.88;10.05;;;;;;;;;;6141350;23;20494;-42
2023/01/21 06:39:40;;;;;;;25.40;9.10;;;;;;;;;;6157384;23;20104;-41
2023/01/21 06:42:08;;;;;;;33.53;10.30;;;;;;;;;;6148194;23;20044;-41
2023/01/21 06:44:37;;;;;;;29.05;9.43;;;;;;;;;;6159486;23;20009;-42
2023/01/21 06:47:05;;;;;;;28.60;9.98;;;;;;;;;;6155489;23;20025;-41
2023/01/21 06:49:33;;;;;;;36.65;11.23;;;;;;;;;;6142552;23;20100;-42
2023/01/21 06:52:00;;;;;;;38.10;12.50;;;;;;;;;;6155112;23;20538;-42
2023/01/21 06:54:29;;;;;;;36.88;10.18;;;;;;;;;;6144204;23;20436;-43
2023/01/21 06:56:57;;;;;;;32.28;11.02;;;;;;;;;;6153323;23;20460;-43
2023/01/21 06:59:24;;;;;;;36.03;10.77;;;;;;;;;;6145921;23;20045;-44
2023/01/21 07:01:53;;;;;;;33.67;10.07;;;;;;;;;;6153273;23;20067;-42
2023/01/21 07:04:22;;;;;;;41.37;10.37;;;;;;;;;;6147297;23;20474;-42
2023/01/21 07:06:50;;;;;;;35.83;11.10;;;;;;;;;;6157873;23;20079;-42
2023/01/21 07:09:18;;;;;;;40.83;11.63;;;;;;;;;;6149552;23;20343;-43
2023/01/21 07:11:46;;;;;;;39.15;10.65;;;;;;;;;;6148232;23;20040;-42
2023/01/21 07:14:13;;;;;;;38.85;10.43;;;;;;;;;;6146000;23;20424;-44
2023/01/21 07:16:42;;;;;;;44.00;11.53;;;;;;;;;;6158073;23;20470;-42
2023/01/21 07:19:12;;;;;;;44.08;12.27;;;;;;;;;;6149679;23;20017;-42
2023/01/21 07:21:42;;;;;;;40.15;10.63;;;;;;;;;;6148435;23;20461;-42
2023/01/21 07:24:10;;;;;;;42.95;11.50;;;;;;;;;;6160745;23;20021;-42
2023/01/21 07:26:37;;;;;;;49.25;12.60;;;;;;;;;;6148866;23;20025;-42
2023/01/21 07:29:05;;;;;;;50.07;13.13;;;;;;;;;;6155071;23;20394;-42
2023/01/21 07:31:33;;;;;;;47.88;12.98;;;;;;;;;;6129875;23;20412;-43
2023/01/21 07:34:01;;;;;;;49.28;12.35;;;;;;;;;;6150395;23;20013;-42
2023/01/21 07:36:30;;;;;;;52.55;12.35;;;;;;;;;;6156850;23;20059;-41
2023/01/21 07:38:58;;;;;;;50.30;11.65;;;;;;;;;;6149983;23;20321;-42
2023/01/21 07:41:26;;;;;;;46.87;11.80;;;;;;;;;;6159819;23;20017;-43
2023/01/21 07:43:54;;;;;;;44.55;12.38;;;;;;;;;;6154127;23;20041;-44
2023/01/21 07:46:22;;;;;;;51.08;11.50;;;;;;;;;;6152810;23;20049;-46
2023/01/21 07:48:50;;;;;;;45.08;11.40;;;;;;;;;;6156900;23;20017;-42
2023/01/21 07:51:18;;;;;;;52.25;12.73;;;;;;;;;;6143475;23;20507;-46
2023/01/21 07:53:48;;;;;;;44.07;11.57;;;;;;;;;;6156944;23;20444;-42
2023/01/21 07:56:17;;;;;;;49.10;11.90;;;;;;;;;;6143988;23;20035;-42
2023/01/21 07:58:45;;;;;;;43.53;11.07;;;;;;;;;;6154710;23;20060;-43
2023/01/21 08:01:13;;;;;;;39.40;10.80;;;;;;;;;;6145025;23;20624;-42
2023/01/21 08:03:41;;;;;;;39.50;11.35;;;;;;;;;;6160084;23;20036;-42
2023/01/21 08:06:09;;;;;;;44.67;11.40;;;;;;;;;;6149505;23;20017;-42
2023/01/21 08:08:36;;;;;;;49.58;12.88;;;;;;;;;;6159489;23;20028;-43
2023/01/21 08:11:05;;;;;;;50.97;12.25;;;;;;;;;;6154049;23;20083;-42
2023/01/21 08:13:35;;;;;;;38.75;11.52;;;;;;;;;;6153315;23;20355;-42
2023/01/21 08:16:03;;;;;;;54.25;11.65;;;;;;;;;;6159530;23;20056;-44
2023/01/21 08:18:31;;;;;;;43.27;12.77;;;;;;;;;;6122393;23;20604;-43
2023/01/21 08:20:59;;;;;;;44.80;11.68;;;;;;;;;;6156910;23;20021;-43
2023/01/21 08:23:26;;;;;;;45.20;11.60;;;;;;;;;;6149971;23;20016;-43
2023/01/21 08:25:54;;;;;;;40.17;12.02;;;;;;;;;;6163097;23;20121;-45
2023/01/21 08:28:23;;;;;;;48.47;11.60;;;;;;;;;;6148577;23;20025;-43
2023/01/21 08:30:51;;;;;;;46.77;12.00;;;;;;;;;;6148205;23;20013;-42
2023/01/21 08:33:18;;;;;;;45.50;12.68;;;;;;;;;;6159259;23;20095;-43
2023/01/21 08:35:46;;;;;;;49.05;12.63;;;;;;;;;;6141129;23;20020;-42
2023/01/21 08:38:14;;;;;;;48.35;12.50;;;;;;;;;;6156848;23;20044;-43
2023/01/21 08:40:41;;;;;;;50.97;11.57;;;;;;;;;;6138730;23;20013;-42
2023/01/21 08:43:09;;;;;;;56.63;13.07;;;;;;;;;;6124374;23;20021;-43
2023/01/21 08:45:38;;;;;;;62.50;12.75;;;;;;;;;;6159912;23;20096;-43
2023/01/21 08:48:06;;;;;;;42.83;12.07;;;;;;;;;;6149180;23;20013;-42
2023/01/21 08:50:34;;;;;;;70.20;12.38;;;;;;;;;;6157444;23;20017;-44
2023/01/21 08:53:02;;;;;;;55.80;12.80;;;;;;;;;;6144541;23;20471;-42
2023/01/21 08:55:29;;;;;;;53.87;10.40;;;;;;;;;;6157901;23;20072;-45
2023/01/21 08:57:58;;;;;;;63.67;11.95;;;;;;;;;;6151746;23;20025;-42
2023/01/21 09:00:26;;;;;;;62.95;11.80;;;;;;;;;;6160527;23;20530;-44
2023/01/21 09:02:55;;;;;;;81.63;11.65;;;;;;;;;;6153474;23;20067;-44
2023/01/21 09:05:25;;;;;;;65.22;10.98;;;;;;;;;;6155230;23;20032;-42
2023/01/21 09:07:55;;;;;;;57.17;11.03;;;;;;;;;;6164724;23;20116;-44
2023/01/21 09:13:10;;;;;;;83.43;12.27;;;;;;;;;;6159213;23;20466;-42
2023/01/21 09:15:38;;;;;;;50.72;10.65;;;;;;;;;;6147807;23;20013;-42
2023/01/21 09:18:11;;;;;;;71.20;11.00;;;;;;;;;;6159717;23;20017;-43
2023/01/21 09:20:40;;;;;;;52.23;10.57;;;;;;;;;;6159660;23;20092;-42
2023/01/21 09:23:22;;;;;;;50.20;11.00;;;;;;;;;;6150701;23;20483;-44
2023/01/21 09:25:51;;;;;;;47.40;10.93;;;;;;;;;;6154877;23;20013;-44
2023/01/21 09:28:19;;;;;;;67.97;12.52;;;;;;;;;;6148516;23;20359;-43
2023/01/21 09:30:55;;;;;;;72.28;13.35;;;;;;;;;;6153438;23;20391;-43
2023/01/21 09:33:24;;;;;;;65.37;13.23;;;;;;;;;;6154659;23;20020;-43
2023/01/21 09:35:52;;;;;;;54.38;11.88;;;;;;;;;;6148328;23;20040;-43
2023/01/21 09:38:20;;;;;;;59.80;11.65;;;;;;;;;;6159434;23;20045;-42
2023/01/21 09:40:48;;;;;;;56.28;11.05;;;;;;;;;;6153863;23;20056;-43
2023/01/21 09:43:19;;;;;;;160.05;15.38;;;;;;;;;;6153583;23;20017;-43
2023/01/21 09:45:47;;;;;;;55.13;10.27;;;;;;;;;;6124552;23;20349;-44
2023/01/21 09:48:16;;;;;;;52.60;9.02;;;;;;;;;;6158644;23;20017;-41
2023/01/21 09:50:46;;;;;;;50.40;10.38;;;;;;;;;;6144296;23;20317;-42
2023/01/21 09:53:20;;;;;;;62.42;11.65;;;;;;;;;;6159264;23;20017;-41
2023/01/21 09:55:49;;;;;;;63.67;10.23;;;;;;;;;;6157722;23;20462;-42
2023/01/21 09:58:20;;;;;;;51.50;9.77;;;;;;;;;;6150716;23;20020;-44
2023/01/21 10:00:49;;;;;;;59.80;10.80;;;;;;;;;;6160717;23;20391;-42
2023/01/21 10:03:19;;;;;;;53.67;11.13;;;;;;;;;;6155536;23;20028;-42
2023/01/21 10:06:03;;;;;;;42.80;8.88;;;;;;;;;;6157931;23;20017;-42
2023/01/21 10:08:37;;;;;;;46.65;10.15;;;;;;;;;;6139767;23;20021;-43
2023/01/21 10:11:12;;;;;;;42.30;9.23;;;;;;;;;;6161549;23;20032;-42
2023/01/21 10:13:49;;;;;;;53.00;9.98;;;;;;;;;;6149288;23;20013;-41
2023/01/21 10:16:21;;;;;;;43.53;9.55;;;;;;;;;;6151730;23;20065;-42
2023/01/21 10:18:51;;;;;;;50.88;9.98;;;;;;;;;;6144775;23;20450;-42
2023/01/21 10:21:23;;;;;;;50.55;11.07;;;;;;;;;;6160183;23;20013;-42
2023/01/21 10:23:56;;;;;;;61.30;10.47;;;;;;;;;;6149268;23;20383;-42
2023/01/21 10:26:27;;;;;;;55.58;10.20;;;;;;;;;;6162288;23;20075;-41
2023/01/21 10:28:55;;;;;;;44.53;10.60;;;;;;;;;;6143776;23;20037;-42
2023/01/21 10:31:25;;;;;;;44.33;9.45;;;;;;;;;;6155555;23;20883;-41
2023/01/21 10:33:53;;;;;;;48.10;10.57;;;;;;;;;;6144030;23;20023;-41
2023/01/21 10:36:31;;;;;;;51.03;10.80;;;;;;;;;;6153537;23;20020;-42
2023/01/21 10:39:04;;;;;;;40.33;9.68;;;;;;;;;;6119346;23;20029;-41
2023/01/21 10:41:44;;;;;;;49.65;10.57;;;;;;;;;;6156733;23;20040;-41
2023/01/21 10:44:18;;;;;;;42.67;9.93;;;;;;;;;;6161194;23;20017;-42
2023/01/21 10:46:49;;;;;;;34.60;8.63;;;;;;;;;;6143417;23;20502;-42
2023/01/21 10:49:24;;;;;;;48.60;10.83;;;;;;;;;;6156207;23;20028;-42
2023/01/21 10:51:57;;;;;;;36.35;11.05;;;;;;;;;;6159648;23;20021;-41
2023/01/21 10:54:29;;;;;;;42.83;10.70;;;;;;;;;;6147829;23;20017;-43
2023/01/21 10:57:01;;;;;;;42.30;10.30;;;;;;;;;;6141478;23;20009;-42
2023/01/21 10:59:32;;;;;;;42.35;10.38;;;;;;;;;;6145055;23;20045;-43
2023/01/21 11:02:04;;;;;;;41.33;10.43;;;;;;;;;;6144140;23;20418;-42
2023/01/21 11:04:33;;;;;;;43.72;12.00;;;;;;;;;;6148217;23;20083;-43
2023/01/21 11:07:03;;;;;;;45.53;9.90;;;;;;;;;;6147911;23;20048;-42
2023/01/21 11:09:32;;;;;;;38.90;10.48;;;;;;;;;;6148572;23;20127;-42
2023/01/21 11:12:01;;;;;;;39.72;10.95;;;;;;;;;;6153079;23;20580;-41
2023/01/21 11:14:29;;;;;;;37.47;8.77;;;;;;;;;;6148098;23;20021;-42
2023/01/21 11:16:57;;;;;;;41.85;10.60;;;;;;;;;;6149702;23;20092;-44
2023/01/21 11:19:26;;;;;;;37.00;11.70;;;;;;;;;;6150435;23;20017;-42
2023/01/21 11:21:59;;;;;;;41.05;10.63;;;;;;;;;;6148845;23;20092;-42
2023/01/21 11:24:29;;;;;;;39.50;11.30;;;;;;;;;;6150425;23;20468;-42
2023/01/21 11:26:59;;;;;;;39.27;11.30;;;;;;;;;;6151655;23;20021;-41
2023/01/21 11:29:27;;;;;;;43.38;11.23;;;;;;;;;;6150655;23;20013;-43
2023/01/21 11:32:01;;;;;;;43.13;11.63;;;;;;;;;;6151520;23;20107;-43
2023/01/21 11:34:29;;;;;;;45.75;11.65;;;;;;;;;;6151969;23;20521;-43
2023/01/21 11:36:58;;;;;;;45.70;11.70;;;;;;;;;;6141918;23;20025;-42
2023/01/21 11:39:29;;;;;;;44.80;12.87;;;;;;;;;;6155580;23;20487;-42
2023/01/21 11:41:57;;;;;;;55.40;12.60;;;;;;;;;;6145538;23;20359;-42
2023/01/21 11:44:27;;;;;;;40.25;11.70;;;;;;;;;;6153739;23;20024;-43
2023/01/21 11:46:56;;;;;;;47.67;12.98;;;;;;;;;;6150967;23;20076;-42
2023/01/21 11:49:30;;;;;;;56.13;13.50;;;;;;;;;;6142830;23;20044;-43
2023/01/21 11:52:17;;;;;;;44.60;13.10;;;;;;;;;;6154245;23;20021;-43
2023/01/21 11:54:47;;;;;;;49.28;13.63;;;;;;;;;;6123063;23;20049;-43
2023/01/21 11:57:24;;;;;;;56.60;14.45;;;;;;;;;;6149874;23;20013;-43
2023/01/21 11:59:59;;;;;;;48.17;13.93;;;;;;;;;;6150602;23;20017;-42
2023/01/21 12:02:28;;;;;;;53.40;14.70;;;;;;;;;;6155999;23;20024;-42
2023/01/21 12:04:59;;;;;;;45.70;13.73;;;;;;;;;;6152872;23;20021;-42
2023/01/21 12:07:28;;;;;;;45.75;13.77;;;;;;;;;;6151472;23;20017;-41
2023/01/21 12:10:01;;;;;;;59.85;17.15;;;;;;;;;;6151369;23;20527;-41
2023/01/21 12:12:32;;;;;;;49.20;14.95;;;;;;;;;;6156453;23;20048;-43
2023/01/21 12:15:03;;;;;;;49.42;13.38;;;;;;;;;;6143221;23;20056;-42
2023/01/21 12:17:39;;;;;;;48.67;13.77;;;;;;;;;;6148657;23;20386;-44
2023/01/21 12:20:13;;;;;;;47.42;13.68;;;;;;;;;;6153636;23;20017;-42
2023/01/21 12:22:50;;;;;;;53.08;15.10;;;;;;;;;;6152758;23;20100;-42
2023/01/21 12:25:37;;;;;;;46.20;13.63;;;;;;;;;;6154018;23;20088;-44
2023/01/21 12:28:17;;;;;;;46.38;13.48;;;;;;;;;;6154246;23;20055;-42
2023/01/21 12:30:49;;;;;;;49.70;14.10;;;;;;;;;;6126477;23;20444;-43
2023/01/21 12:33:19;;;;;;;45.72;14.15;;;;;;;;;;6162585;23;20120;-42
2023/01/21 12:35:49;;;;;;;42.65;13.80;;;;;;;;;;6146643;23;20362;-41
2023/01/21 12:38:18;;;;;;;51.13;14.20;;;;;;;;;;6159358;23;20044;-41
2023/01/21 12:40:50;;;;;;;51.05;15.93;;;;;;;;;;6155330;23;20325;-42
2023/01/21 12:43:20;;;;;;;55.67;15.60;;;;;;;;;;6125074;23;20017;-42
2023/01/21 12:45:51;;;;;;;53.42;14.90;;;;;;;;;;6160976;23;20343;-41
2023/01/21 12:48:24;;;;;;;44.85;15.52;;;;;;;;;;6157894;23;20021;-42
2023/01/21 12:50:56;;;;;;;45.90;16.05;;;;;;;;;;6162127;23;20024;-43
2023/01/21 12:53:29;;;;;;;50.25;15.70;;;;;;;;;;6156930;23;20080;-42
2023/01/21 12:56:02;;;;;;;42.50;14.17;;;;;;;;;;6125756;23;20064;-43
2023/01/21 12:58:31;;;;;;;45.97;14.68;;;;;;;;;;6148461;23;20014;-41
2023/01/21 13:01:04;;;;;;;45.17;13.63;;;;;;;;;;6160213;23;20013;-41
2023/01/21 13:03:36;;;;;;;47.78;13.45;;;;;;;;;;6156312;23;20021;-41
2023/01/21 13:06:06;;;;;;;52.67;14.35;;;;;;;;;;6147546;23;20391;-42
2023/01/21 13:08:44;;;;;;;48.27;14.87;;;;;;;;;;6159302;23;20025;-41
2023/01/21 13:11:17;;;;;;;52.53;15.80;;;;;;;;;;6153623;23;20376;-43
2023/01/21 13:13:47;;;;;;;46.75;14.18;;;;;;;;;;6158044;23;20083;-43
2023/01/21 13:16:15;;;;;;;58.15;17.08;;;;;;;;;;6157323;23;20600;-41
2023/01/21 13:18:44;;;;;;;54.65;15.23;;;;;;;;;;6156896;23;20512;-42
2023/01/21 13:21:16;;;;;;;53.37;14.80;;;;;;;;;;6123804;23;20427;-42
2023/01/21 13:23:48;;;;;;;46.65;13.13;;;;;;;;;;6150360;23;20056;-43
2023/01/21 13:26:20;;;;;;;56.65;13.10;;;;;;;;;;6150830;23;20068;-41
2023/01/21 13:28:53;;;;;;;47.90;15.18;;;;;;;;;;6147305;23;20587;-41
2023/01/21 13:31:27;;;;;;;50.45;13.95;;;;;;;;;;6157480;23;20017;-41
2023/01/21 13:34:01;;;;;;;46.97;14.53;;;;;;;;;;6141433;23;20246;-43
2023/01/21 13:36:46;;;;;;;44.40;14.13;;;;;;;;;;6146654;23;20021;-42
2023/01/21 13:39:18;;;;;;;45.42;13.00;;;;;;;;;;6155569;23;20438;-41
2023/01/21 13:41:52;;;;;;;46.63;13.18;;;;;;;;;;6150359;23;20021;-42
2023/01/21 13:44:38;;;;;;;51.90;15.25;;;;;;;;;;6159934;23;20017;-44
2023/01/21 13:47:09;;;;;;;42.47;13.33;;;;;;;;;;6150645;23;20385;-43
2023/01/21 13:49:50;;;;;;;45.80;13.45;;;;;;;;;;6143245;23;20438;-42
2023/01/21 13:52:20;;;;;;;49.13;14.43;;;;;;;;;;6159347;23;20455;-41
2023/01/21 13:54:55;;;;;;;45.80;13.75;;;;;;;;;;6145998;23;20092;-41
2023/01/21 13:57:35;;;;;;;48.38;12.23;;;;;;;;;;6143530;23;20013;-43
2023/01/21 14:00:05;;;;;;;37.57;10.23;;;;;;;;;;6152071;23;20395;-44
2023/01/21 14:02:37;;;;;;;36.08;10.93;;;;;;;;;;6141096;23;20613;-42
2023/01/21 14:05:07;;;;;;;37.95;11.02;;;;;;;;;;6158102;23;20132;-42
2023/01/21 14:07:38;;;;;;;38.80;11.45;;;;;;;;;;6145868;23;20025;-42
2023/01/21 14:10:10;;;;;;;42.85;12.02;;;;;;;;;;6150944;23;20024;-41
2023/01/21 14:12:52;;;;;;;40.00;11.47;;;;;;;;;;6136727;23;20063;-43
2023/01/21 14:15:26;;;;;;;40.17;12.52;;;;;;;;;;6140967;23;20016;-45
2023/01/21 14:18:08;;;;;;;39.58;11.38;;;;;;;;;;6158452;23;20114;-42
2023/01/21 14:20:42;;;;;;;37.65;11.55;;;;;;;;;;6147588;23;20096;-42
2023/01/21 14:23:20;;;;;;;36.85;11.90;;;;;;;;;;6129254;23;20421;-42
2023/01/21 14:25:55;;;;;;;42.77;12.03;;;;;;;;;;6157577;23;20040;-42
2023/01/21 14:28:29;;;;;;;42.60;11.43;;;;;;;;;;6144003;23;20365;-42
2023/01/21 14:31:01;;;;;;;34.90;10.98;;;;;;;;;;6155993;23;20024;-41
2023/01/21 14:33:37;;;;;;;41.00;11.35;;;;;;;;;;6156738;23;20041;-43
2023/01/21 14:36:07;;;;;;;53.70;12.07;;;;;;;;;;6160015;23;20029;-42
2023/01/21 14:38:42;;;;;;;40.67;12.47;;;;;;;;;;6136960;23;20410;-42
2023/01/21 14:41:10;;;;;;;37.30;10.77;;;;;;;;;;6147489;23;20017;-41
2023/01/21 14:43:52;;;;;;;37.70;10.93;;;;;;;;;;6157769;23;20012;-42
2023/01/21 14:46:29;;;;;;;33.22;10.90;;;;;;;;;;6143268;23;20561;-42
2023/01/21 14:48:59;;;;;;;45.38;13.00;;;;;;;;;;6146310;23;20218;-42
2023/01/21 14:51:29;;;;;;;44.60;12.80;;;;;;;;;;6155596;23;20059;-42
2023/01/21 14:54:01;;;;;;;46.65;12.90;;;;;;;;;;6158330;23;20021;-43